Time;durP1;ratioP1;P1;durP2;ratioP2;P2;SDS_P1;SDS_P2;PMS_P1;PMS_P2;Temp;Humidity;BMP_temperature;BMP_pressure;BME280_temperature;BME280_humidity;BME280_pressure;Samples;Min_cycle;Max_cycle;Signal;HPM_P1;HPM_P2
2021/06/29 00:02:11;;;;;;;7.53;6.80;;;19.70;99.90;;;;;;5070751;28;20672;-74
2021/06/29 00:04:38;;;;;;;10.80;6.78;;;19.60;99.90;;;;;;5068665;28;20202;-74
2021/06/29 00:07:05;;;;;;;9.65;7.03;;;19.60;99.90;;;;;;5065293;28;20225;-74
2021/06/29 00:09:32;;;;;;;13.57;7.05;;;19.60;99.90;;;;;;5066169;28;20435;-74
2021/06/29 00:12:01;;;;;;;8.15;6.20;;;19.40;99.90;;;;;;5070404;28;20207;-74
2021/06/29 00:14:28;;;;;;;11.27;6.82;;;19.40;99.90;;;;;;5072079;28;20663;-74
2021/06/29 00:16:55;;;;;;;12.20;6.07;;;19.40;99.90;;;;;;5059378;28;20699;-74
2021/06/29 00:19:22;;;;;;;7.22;6.50;;;19.30;99.90;;;;;;5071923;28;20234;-74
2021/06/29 00:21:49;;;;;;;14.07;6.70;;;19.30;99.90;;;;;;5069782;28;20217;-74
2021/06/29 00:24:16;;;;;;;7.07;5.95;;;19.10;99.90;;;;;;5071170;28;20194;-74
2021/06/29 00:26:44;;;;;;;8.90;5.80;;;19.30;99.90;;;;;;5070418;28;20573;-74
2021/06/29 00:29:12;;;;;;;11.63;6.20;;;19.30;99.90;;;;;;5065573;28;20199;-74
2021/06/29 00:31:39;;;;;;;9.32;6.22;;;19.30;99.90;;;;;;5070448;28;20211;-74
2021/06/29 00:34:06;;;;;;;7.38;6.07;;;19.40;99.90;;;;;;5071199;28;20221;-74
2021/06/29 00:36:33;;;;;;;9.13;5.57;;;19.20;99.90;;;;;;5071487;28;20241;-74
2021/06/29 00:39:00;;;;;;;8.98;5.57;;;19.20;99.90;;;;;;5068895;28;20219;-74
2021/06/29 00:41:27;;;;;;;9.18;5.78;;;19.20;99.90;;;;;;5070611;28;20293;-74
2021/06/29 00:43:54;;;;;;;9.35;5.75;;;19.20;99.90;;;;;;5077834;28;20210;-74
2021/06/29 00:46:23;;;;;;;10.90;6.13;;;19.20;99.90;;;;;;5070462;28;20210;-74
2021/06/29 00:48:50;;;;;;;10.15;5.53;;;19.30;99.90;;;;;;5071010;28;20201;-74
2021/06/29 00:51:19;;;;;;;11.00;5.80;;;19.30;99.90;;;;;;5068977;28;20210;-74
2021/06/29 00:53:46;;;;;;;12.27;5.72;;;19.40;99.90;;;;;;5071610;28;20190;-74
2021/06/29 00:56:14;;;;;;;18.60;6.28;;;19.40;99.90;;;;;;5062305;28;20199;-74
2021/06/29 00:58:42;;;;;;;14.07;6.22;;;19.20;99.90;;;;;;5063711;28;20287;-74
2021/06/29 01:01:09;;;;;;;11.02;6.15;;;19.20;99.90;;;;;;5069480;28;20206;-74
2021/06/29 01:03:37;;;;;;;12.45;6.00;;;19.20;99.90;;;;;;5067441;28;20209;-74
2021/06/29 01:06:06;;;;;;;9.68;6.10;;;19.40;99.90;;;;;;5067682;28;20202;-74
2021/06/29 01:08:33;;;;;;;8.02;5.70;;;19.50;99.90;;;;;;5070054;28;20234;-74
2021/06/29 01:11:00;;;;;;;7.15;5.10;;;19.60;99.90;;;;;;5071302;28;20293;-74
2021/06/29 01:13:31;;;;;;;7.93;5.40;;;19.50;99.90;;;;;;5069496;28;20579;-74
2021/06/29 01:15:59;;;;;;;15.65;5.50;;;19.60;99.90;;;;;;5072535;28;20202;-74
2021/06/29 01:18:26;;;;;;;10.10;5.35;;;19.50;99.90;;;;;;5063367;28;20605;-74
2021/06/29 01:20:55;;;;;;;19.17;5.78;;;19.50;99.90;;;;;;5069072;28;20613;-74
2021/06/29 01:23:24;;;;;;;13.45;6.10;;;19.20;99.90;;;;;;5071886;28;20228;-74
2021/06/29 01:26:05;;;;;;;10.13;5.95;;;19.30;99.90;;;;;;5067317;28;20205;-74
2021/06/29 01:28:36;;;;;;;10.45;5.72;;;19.10;99.90;;;;;;5065572;28;20202;-74
2021/06/29 01:31:04;;;;;;;15.98;7.55;;;19.20;99.90;;;;;;5069192;28;20284;-74
2021/06/29 01:33:31;;;;;;;14.00;7.82;;;19.20;99.90;;;;;;5068950;28;20776;-74
2021/06/29 01:36:00;;;;;;;15.15;6.70;;;19.20;99.90;;;;;;5062910;28;20203;-74
2021/06/29 01:38:27;;;;;;;14.18;6.47;;;19.20;99.90;;;;;;5069826;28;20226;-73
2021/06/29 01:40:54;;;;;;;15.73;7.28;;;19.10;99.90;;;;;;5069876;28;20434;-74
2021/06/29 01:43:24;;;;;;;15.30;5.63;;;19.00;99.90;;;;;;5068666;28;20683;-74
2021/06/29 01:45:53;;;;;;;10.80;5.38;;;19.00;99.90;;;;;;5070510;28;20566;-74
2021/06/29 01:48:22;;;;;;;8.38;5.18;;;19.20;99.90;;;;;;5070235;28;20217;-74
2021/06/29 01:50:49;;;;;;;8.18;4.50;;;19.20;99.90;;;;;;5064363;28;20688;-74
2021/06/29 01:53:18;;;;;;;5.47;4.47;;;19.30;99.90;;;;;;5070431;28;20212;-74
2021/06/29 01:55:45;;;;;;;8.60;4.28;;;19.40;99.90;;;;;;5067649;28;20209;-74
2021/06/29 01:58:14;;;;;;;5.15;3.97;;;19.50;99.90;;;;;;5070349;28;20687;-74
2021/06/29 02:00:41;;;;;;;5.78;4.35;;;19.60;99.90;;;;;;5069282;28;20625;-74
2021/06/29 02:03:08;;;;;;;9.30;4.65;;;19.70;99.90;;;;;;5068772;28;20525;-74
2021/06/29 02:05:34;;;;;;;6.95;4.57;;;19.80;99.90;;;;;;5072819;28;20610;-74
2021/06/29 02:08:01;;;;;;;9.07;4.40;;;19.80;99.90;;;;;;5070697;28;20206;-74
2021/06/29 02:10:29;;;;;;;5.25;4.50;;;19.80;99.90;;;;;;5068939;28;20656;-74
2021/06/29 02:12:58;;;;;;;5.25;4.50;;;20.00;99.90;;;;;;5070430;28;20574;-74
2021/06/29 02:15:25;;;;;;;8.75;5.07;;;20.00;99.90;;;;;;5068174;28;20271;-74
2021/06/29 02:17:52;;;;;;;6.03;4.93;;;20.20;99.90;;;;;;5069588;28;20222;-74
2021/06/29 02:20:19;;;;;;;5.22;4.72;;;20.20;99.90;;;;;;5068985;28;20736;-74
2021/06/29 02:22:46;;;;;;;5.85;4.57;;;20.30;99.90;;;;;;5059990;28;20209;-74
2021/06/29 02:25:14;;;;;;;8.77;5.10;;;20.20;99.90;;;;;;5070338;28;20573;-74
2021/06/29 02:27:42;;;;;;;8.50;5.93;;;20.20;99.90;;;;;;5066295;28;20210;-74
2021/06/29 02:30:11;;;;;;;11.82;5.43;;;20.10;99.90;;;;;;5061639;28;20205;-74
2021/06/29 02:32:38;;;;;;;7.53;5.70;;;20.00;99.90;;;;;;5073093;28;20203;-74
2021/06/29 02:35:05;;;;;;;7.65;5.20;;;19.90;99.90;;;;;;5066442;28;20198;-75
2021/06/29 02:37:32;;;;;;;7.22;5.05;;;19.90;99.90;;;;;;5063866;28;20640;-74
2021/06/29 02:39:59;;;;;;;11.35;5.40;;;19.80;99.90;;;;;;5073480;28;20364;-74
2021/06/29 02:42:26;;;;;;;7.45;6.00;;;19.60;99.90;;;;;;5075099;28;20206;-75
2021/06/29 02:44:54;;;;;;;6.57;5.95;;;19.50;99.90;;;;;;5065791;28;20202;-74
2021/06/29 02:47:21;;;;;;;8.57;6.55;;;19.60;99.90;;;;;;5074349;28;20216;-75
2021/06/29 02:49:48;;;;;;;6.30;5.65;;;19.50;99.90;;;;;;5064321;28;20228;-75
2021/06/29 02:52:15;;;;;;;8.82;5.60;;;19.50;99.90;;;;;;5069344;28;20207;-74
2021/06/29 02:54:41;;;;;;;6.35;5.65;;;19.40;99.90;;;;;;5069622;28;20289;-75
2021/06/29 02:57:09;;;;;;;8.70;5.53;;;19.40;99.90;;;;;;5070400;28;20213;-74
2021/06/29 02:59:36;;;;;;;7.75;6.05;;;19.40;99.90;;;;;;5080203;28;20231;-75
2021/06/29 03:02:04;;;;;;;7.32;5.18;;;19.40;99.90;;;;;;5070290;28;20661;-74
2021/06/29 03:04:31;;;;;;;7.70;5.68;;;19.40;99.90;;;;;;5067424;28;20204;-75
2021/06/29 03:06:58;;;;;;;7.30;5.38;;;19.50;99.90;;;;;;5071351;28;20205;-75
2021/06/29 03:09:25;;;;;;;7.40;5.43;;;19.40;99.90;;;;;;5074352;28;20206;-75
2021/06/29 03:11:52;;;;;;;8.40;5.72;;;19.40;99.90;;;;;;5073651;28;20194;-75
2021/06/29 03:14:18;;;;;;;8.32;5.65;;;19.40;99.90;;;;;;5073732;28;20614;-75
2021/06/29 03:16:45;;;;;;;6.55;5.47;;;19.40;99.90;;;;;;5073791;28;20209;-74
2021/06/29 03:19:13;;;;;;;5.18;4.65;;;19.40;99.90;;;;;;5064998;28;20228;-75
2021/06/29 03:21:40;;;;;;;5.60;5.10;;;19.40;99.90;;;;;;5061080;28;20209;-75
2021/06/29 03:24:07;;;;;;;8.65;5.15;;;19.50;99.90;;;;;;5063584;28;20212;-76
2021/06/29 03:26:34;;;;;;;5.32;4.70;;;19.40;99.90;;;;;;5073833;28;20667;-75
2021/06/29 03:29:01;;;;;;;8.57;5.72;;;19.40;99.90;;;;;;5066676;28;20201;-75
2021/06/29 03:31:28;;;;;;;5.65;4.80;;;19.30;99.90;;;;;;5070054;28;20210;-75
2021/06/29 03:33:55;;;;;;;8.20;4.80;;;19.30;99.90;;;;;;5067795;28;20202;-75
2021/06/29 03:36:23;;;;;;;5.88;4.70;;;19.20;99.90;;;;;;5068124;28;20649;-75
2021/06/29 03:38:50;;;;;;;6.65;4.60;;;19.30;99.90;;;;;;5070897;28;20906;-75
2021/06/29 03:41:17;;;;;;;5.93;5.32;;;19.10;99.90;;;;;;5054605;28;20221;-76
2021/06/29 03:43:44;;;;;;;9.15;5.65;;;19.20;99.90;;;;;;5072304;28;20710;-75
2021/06/29 03:46:11;;;;;;;4.82;4.43;;;19.20;99.90;;;;;;5073323;28;20562;-75
2021/06/29 03:48:38;;;;;;;6.40;5.20;;;19.30;99.90;;;;;;5073816;28;20201;-75
2021/06/29 03:51:05;;;;;;;5.88;5.25;;;19.30;99.90;;;;;;5071560;28;20206;-75
2021/06/29 03:53:33;;;;;;;8.13;5.25;;;19.30;99.90;;;;;;5071071;28;20202;-75
2021/06/29 03:56:00;;;;;;;8.88;6.50;;;19.30;99.90;;;;;;5054596;28;20606;-76
2021/06/29 03:58:27;;;;;;;9.38;4.82;;;19.30;99.90;;;;;;5067932;28;20648;-76
2021/06/29 04:00:54;;;;;;;8.68;4.93;;;19.20;99.90;;;;;;5068321;28;20220;-76
2021/06/29 04:03:20;;;;;;;10.50;4.78;;;19.00;99.90;;;;;;5067939;28;20210;-76
2021/06/29 04:05:47;;;;;;;8.70;5.28;;;19.00;99.90;;;;;;5069000;28;20212;-76
2021/06/29 04:08:14;;;;;;;7.03;4.95;;;18.90;99.90;;;;;;5074947;28;20289;-76
2021/06/29 04:10:43;;;;;;;7.18;5.10;;;18.90;99.90;;;;;;5072016;28;20198;-76
2021/06/29 04:13:27;;;;;;;6.10;5.10;;;19.10;99.90;;;;;;5052025;28;20218;-75
2021/06/29 04:15:54;;;;;;;6.93;5.07;;;19.10;99.90;;;;;;5066705;28;20202;-75
2021/06/29 04:18:21;;;;;;;8.70;5.45;;;19.00;99.90;;;;;;5071965;28;20572;-75
2021/06/29 04:20:48;;;;;;;5.75;4.82;;;19.10;99.90;;;;;;5073543;28;20308;-75
2021/06/29 04:23:15;;;;;;;8.00;5.18;;;19.10;99.90;;;;;;5070738;28;20209;-75
2021/06/29 04:25:43;;;;;;;9.27;5.20;;;19.10;99.90;;;;;;5064198;28;20209;-75
2021/06/29 04:28:10;;;;;;;7.57;5.80;;;19.10;99.90;;;;;;5070889;28;20463;-75
2021/06/29 04:30:37;;;;;;;8.40;5.93;;;19.10;99.90;;;;;;5072657;28;20190;-75
2021/06/29 04:33:04;;;;;;;6.53;5.75;;;19.10;99.90;;;;;;5071220;28;20289;-75
2021/06/29 04:35:31;;;;;;;9.93;5.70;;;19.20;99.90;;;;;;5069704;28;20202;-75
2021/06/29 04:37:58;;;;;;;8.85;5.55;;;19.20;99.90;;;;;;5065107;28;20206;-75
2021/06/29 04:40:24;;;;;;;7.78;5.35;;;19.20;99.90;;;;;;5062976;28;20243;-75
2021/06/29 04:42:53;;;;;;;8.35;5.93;;;19.20;99.90;;;;;;5065484;28;20571;-75
2021/06/29 04:45:20;;;;;;;7.25;5.28;;;19.20;99.90;;;;;;5071128;28;20212;-75
2021/06/29 04:47:47;;;;;;;6.85;5.53;;;19.10;99.90;;;;;;5058678;28;20276;-73
2021/06/29 04:50:15;;;;;;;7.45;5.40;;;19.20;99.90;;;;;;5067382;28;20218;-72
2021/06/29 04:52:42;;;;;;;7.55;5.95;;;19.10;99.90;;;;;;5067762;28;20206;-72
2021/06/29 04:55:10;;;;;;;9.25;6.03;;;19.00;99.90;;;;;;5055120;28;20226;-72
2021/06/29 04:57:37;;;;;;;6.13;5.53;;;19.10;99.90;;;;;;5066904;28;20202;-72
2021/06/29 05:00:07;;;;;;;6.78;5.15;;;19.00;99.90;;;;;;5075012;28;20309;-73
2021/06/29 05:02:35;;;;;;;9.38;7.47;;;18.90;99.90;;;;;;5069254;28;20233;-73
2021/06/29 05:05:02;;;;;;;8.80;5.93;;;19.00;99.90;;;;;;5064802;28;20205;-73
2021/06/29 05:07:29;;;;;;;7.88;5.93;;;19.00;99.90;;;;;;5072340;28;20564;-74
2021/06/29 05:09:55;;;;;;;6.68;5.30;;;19.00;99.90;;;;;;5066466;28;20196;-74
2021/06/29 05:12:22;;;;;;;7.03;5.40;;;19.00;99.90;;;;;;5064031;28;20577;-75
2021/06/29 05:14:49;;;;;;;8.60;5.57;;;19.00;99.90;;;;;;5072045;28;20628;-74
2021/06/29 05:17:17;;;;;;;6.93;5.45;;;19.00;99.90;;;;;;5071168;28;20209;-74
2021/06/29 05:19:44;;;;;;;6.32;4.97;;;19.00;99.90;;;;;;5067719;28;20218;-73
2021/06/29 05:22:11;;;;;;;7.68;5.28;;;19.10;99.90;;;;;;5058307;28;20618;-73
2021/06/29 05:24:38;;;;;;;5.55;5.05;;;19.20;99.90;;;;;;5059339;28;20206;-75
2021/06/29 05:27:06;;;;;;;8.63;6.13;;;19.10;99.90;;;;;;5072057;28;20586;-74
2021/06/29 05:29:32;;;;;;;6.90;5.68;;;19.20;99.90;;;;;;5063495;28;20570;-74
2021/06/29 05:31:59;;;;;;;6.72;5.50;;;19.20;99.90;;;;;;5070812;28;20202;-74
2021/06/29 05:34:27;;;;;;;7.50;5.32;;;19.20;99.90;;;;;;5064595;28;20305;-74
2021/06/29 05:36:54;;;;;;;7.13;5.63;;;19.30;99.90;;;;;;5071669;28;20716;-73
2021/06/29 05:39:21;;;;;;;7.20;5.60;;;19.30;99.90;;;;;;5054295;28;20676;-74
2021/06/29 05:41:48;;;;;;;8.07;4.93;;;19.30;99.90;;;;;;5064460;28;20285;-74
2021/06/29 05:44:15;;;;;;;7.40;4.80;;;19.20;99.90;;;;;;5069748;28;20206;-73
2021/06/29 05:46:42;;;;;;;9.02;5.38;;;19.00;99.90;;;;;;5064878;28;20199;-73
2021/06/29 05:49:10;;;;;;;6.30;4.70;;;19.20;99.90;;;;;;5051754;28;20207;-73
2021/06/29 05:51:39;;;;;;;6.60;4.55;;;19.10;99.90;;;;;;5054883;28;20210;-73
2021/06/29 05:54:06;;;;;;;9.32;5.10;;;19.00;99.90;;;;;;5068701;28;20202;-73
2021/06/29 05:56:33;;;;;;;6.00;5.40;;;19.00;99.90;;;;;;5071736;28;20202;-73
2021/06/29 05:58:59;;;;;;;6.60;5.00;;;19.20;99.90;;;;;;5068617;28;20205;-73
2021/06/29 06:01:26;;;;;;;7.32;5.10;;;19.20;99.90;;;;;;5083699;28;20631;-73
2021/06/29 06:03:53;;;;;;;5.90;5.30;;;19.20;99.90;;;;;;5069333;28;20417;-73
2021/06/29 06:06:20;;;;;;;6.28;5.68;;;19.20;99.90;;;;;;5057811;28;20646;-73
2021/06/29 06:08:48;;;;;;;7.70;5.53;;;19.20;99.90;;;;;;5066745;28;20209;-73
2021/06/29 06:11:15;;;;;;;6.32;4.95;;;19.40;99.90;;;;;;5065981;28;20201;-72
2021/06/29 06:13:42;;;;;;;6.70;5.30;;;19.40;99.90;;;;;;5068976;28;20229;-73
2021/06/29 06:16:09;;;;;;;8.00;5.40;;;19.40;99.90;;;;;;5074840;28;20212;-72
2021/06/29 06:18:36;;;;;;;7.20;5.68;;;19.60;99.90;;;;;;5078096;28;20306;-72
2021/06/29 06:21:03;;;;;;;7.90;5.65;;;19.60;99.90;;;;;;5076807;28;20272;-73
2021/06/29 06:23:30;;;;;;;8.45;5.60;;;19.80;99.90;;;;;;5069592;28;20564;-72
2021/06/29 06:25:58;;;;;;;6.65;5.45;;;19.70;99.90;;;;;;5071262;28;20288;-72
2021/06/29 06:28:25;;;;;;;6.60;5.65;;;19.80;99.90;;;;;;5068032;28;20198;-72
2021/06/29 06:30:52;;;;;;;7.72;6.07;;;20.00;99.90;;;;;;5071425;28;20197;-72
2021/06/29 06:33:21;;;;;;;8.45;5.78;;;20.00;99.90;;;;;;5074782;28;20206;-73
2021/06/29 06:35:47;;;;;;;10.20;6.05;;;19.80;99.90;;;;;;5077341;28;20202;-72
2021/06/29 06:38:14;;;;;;;9.77;5.93;;;20.00;99.90;;;;;;5078117;28;20299;-73
2021/06/29 06:40:41;;;;;;;8.15;6.90;;;20.00;99.90;;;;;;5068186;28;20224;-71
2021/06/29 06:43:09;;;;;;;9.50;6.25;;;20.00;99.90;;;;;;5077423;28;20198;-71
2021/06/29 06:45:36;;;;;;;7.82;6.90;;;19.80;99.90;;;;;;5064465;28;20194;-71
2021/06/29 06:48:05;;;;;;;7.63;5.85;;;20.00;99.90;;;;;;5077883;28;20209;-71
2021/06/29 06:50:32;;;;;;;7.75;5.82;;;20.10;99.90;;;;;;5077019;28;20243;-71
2021/06/29 06:52:58;;;;;;;8.05;5.70;;;20.10;99.90;;;;;;5065841;28;20202;-71
2021/06/29 06:55:26;;;;;;;7.65;5.47;;;20.10;99.90;;;;;;5070930;28;20205;-71
2021/06/29 06:57:53;;;;;;;6.82;5.53;;;20.20;99.90;;;;;;5081199;28;20406;-71
2021/06/29 07:00:23;;;;;;;8.82;5.90;;;20.40;99.90;;;;;;5074019;28;20214;-71
2021/06/29 07:02:50;;;;;;;7.32;5.18;;;20.60;99.90;;;;;;5073226;28;20669;-72
2021/06/29 07:05:17;;;;;;;5.82;5.20;;;20.30;99.90;;;;;;5071563;28;20199;-71
2021/06/29 07:07:44;;;;;;;6.22;5.22;;;20.40;99.90;;;;;;5069632;28;20578;-72
2021/06/29 07:10:11;;;;;;;5.82;5.30;;;20.50;99.90;;;;;;5071155;28;20214;-72
2021/06/29 07:12:39;;;;;;;6.20;5.40;;;20.40;99.90;;;;;;5066974;28;20618;-71
2021/06/29 07:15:07;;;;;;;8.07;5.13;;;20.30;99.90;;;;;;5070402;28;20205;-71
2021/06/29 07:17:37;;;;;;;6.20;5.18;;;20.40;99.90;;;;;;5071943;28;20198;-71
2021/06/29 07:20:05;;;;;;;5.57;4.88;;;20.30;99.90;;;;;;5065049;28;20214;-71
2021/06/29 07:22:32;;;;;;;8.05;5.90;;;20.60;99.90;;;;;;5068898;28;20210;-71
2021/06/29 07:24:59;;;;;;;6.38;5.30;;;20.80;99.90;;;;;;5069520;28;20201;-71
2021/06/29 07:27:25;;;;;;;7.00;5.35;;;20.60;99.90;;;;;;5066477;28;20203;-71
2021/06/29 07:29:52;;;;;;;5.50;5.00;;;20.80;99.90;;;;;;5071093;28;20206;-72
2021/06/29 07:32:19;;;;;;;6.38;5.03;;;20.70;99.90;;;;;;5073785;28;20202;-71
2021/06/29 07:34:47;;;;;;;7.50;5.20;;;20.50;99.90;;;;;;5066304;28;20207;-71
2021/06/29 07:37:14;;;;;;;5.30;4.78;;;20.70;99.90;;;;;;5068317;28;20225;-72
2021/06/29 07:39:41;;;;;;;7.40;5.00;;;20.70;99.90;;;;;;5060350;28;20648;-72
2021/06/29 07:42:08;;;;;;;5.88;5.22;;;20.60;99.90;;;;;;5068095;28;20198;-72
2021/06/29 07:44:35;;;;;;;7.22;5.93;;;20.50;99.90;;;;;;5065972;28;20543;-72
2021/06/29 07:47:02;;;;;;;10.00;5.70;;;20.50;99.90;;;;;;5063432;28;20202;-72
2021/06/29 07:49:29;;;;;;;5.90;5.30;;;20.40;99.90;;;;;;5069355;28;20191;-72
2021/06/29 07:51:57;;;;;;;5.88;4.75;;;20.30;99.90;;;;;;5079898;28;20201;-72
2021/06/29 07:54:24;;;;;;;9.68;4.85;;;20.10;99.90;;;;;;5070731;28;20206;-72
2021/06/29 07:56:51;;;;;;;5.10;4.60;;;20.20;99.90;;;;;;5070776;28;20613;-72
2021/06/29 07:59:18;;;;;;;5.38;4.88;;;20.20;99.90;;;;;;5076107;28;20198;-72
2021/06/29 08:01:45;;;;;;;5.63;5.10;;;20.10;99.90;;;;;;5077155;28;20226;-72
2021/06/29 08:04:11;;;;;;;8.73;5.57;;;20.20;99.90;;;;;;5075995;28;20724;-72
2021/06/29 08:06:38;;;;;;;10.05;5.95;;;20.00;99.90;;;;;;5078653;28;20281;-72
2021/06/29 08:09:07;;;;;;;7.72;5.80;;;20.00;99.90;;;;;;5077147;28;20289;-72
2021/06/29 08:11:34;;;;;;;8.45;5.82;;;20.10;99.90;;;;;;5077176;28;20195;-72
2021/06/29 08:14:01;;;;;;;9.32;5.68;;;20.20;99.90;;;;;;5075988;28;20205;-72
2021/06/29 08:16:28;;;;;;;7.13;5.38;;;20.20;99.90;;;;;;5072210;28;20210;-72
2021/06/29 08:18:55;;;;;;;6.30;5.65;;;20.30;99.90;;;;;;5070228;28;20621;-72
2021/06/29 08:21:22;;;;;;;8.65;5.68;;;20.10;99.90;;;;;;5071187;28;20218;-72
2021/06/29 08:23:49;;;;;;;6.80;5.75;;;20.30;99.90;;;;;;5072933;28;20196;-72
2021/06/29 08:26:17;;;;;;;7.97;5.65;;;20.40;99.90;;;;;;5078583;28;20205;-72
2021/06/29 08:28:44;;;;;;;6.75;6.05;;;20.50;99.90;;;;;;5071749;28;20237;-72
2021/06/29 08:31:12;;;;;;;10.02;5.95;;;20.70;99.90;;;;;;5071360;28;20209;-72
2021/06/29 08:33:39;;;;;;;6.05;5.25;;;21.00;99.90;;;;;;5081471;28;20678;-72
2021/06/29 08:36:07;;;;;;;8.02;5.00;;;21.10;99.90;;;;;;5071561;28;20207;-72
2021/06/29 08:38:33;;;;;;;6.07;4.70;;;21.10;99.90;;;;;;5085326;28;20229;-72
2021/06/29 08:41:00;;;;;;;6.07;4.95;;;21.00;99.90;;;;;;5077162;28;20219;-72
2021/06/29 08:43:29;;;;;;;6.28;5.47;;;21.00;99.90;;;;;;5083433;28;20197;-72
2021/06/29 08:45:56;;;;;;;5.97;4.60;;;21.00;99.90;;;;;;5080963;28;20212;-72
2021/06/29 08:48:23;;;;;;;7.75;5.22;;;21.10;99.90;;;;;;5083131;28;20208;-72
2021/06/29 08:50:50;;;;;;;5.45;4.93;;;21.40;99.90;;;;;;5078120;28;20216;-72
2021/06/29 08:53:17;;;;;;;7.03;4.65;;;21.50;99.90;;;;;;5071227;28;20297;-72
2021/06/29 08:55:47;;;;;;;6.22;4.03;;;21.50;99.90;;;;;;5067798;28;20232;-72
2021/06/29 08:58:16;;;;;;;4.00;3.70;;;21.30;99.90;;;;;;5064539;28;20206;-72
2021/06/29 09:00:44;;;;;;;4.70;4.30;;;21.50;99.90;;;;;;5078196;28;20702;-72
2021/06/29 09:03:11;;;;;;;3.83;3.53;;;21.80;99.90;;;;;;5071957;28;20648;-72
2021/06/29 09:05:44;;;;;;;5.22;4.45;;;21.70;99.90;;;;;;5070156;28;20217;-72
2021/06/29 09:08:13;;;;;;;6.70;5.10;;;21.80;99.90;;;;;;5057360;28;20208;-72
2021/06/29 09:10:42;;;;;;;7.28;5.50;;;21.90;99.90;;;;;;5057844;28;20206;-72
2021/06/29 09:13:10;;;;;;;6.22;5.63;;;21.90;99.90;;;;;;5064967;28;20289;-72
2021/06/29 09:15:40;;;;;;;5.03;4.53;;;21.80;99.90;;;;;;5070259;28;20628;-72
2021/06/29 09:18:14;;;;;;;4.55;3.28;;;21.90;99.90;;;;;;5068749;28;20289;-72
2021/06/29 09:20:45;;;;;;;4.40;3.25;;;21.70;99.90;;;;;;5053802;28;20583;-72
2021/06/29 09:23:13;;;;;;;3.63;3.33;;;21.90;99.90;;;;;;5070351;28;20208;-72
2021/06/29 09:25:41;;;;;;;5.75;3.22;;;22.10;99.90;;;;;;5056492;28;20626;-72
2021/06/29 09:28:09;;;;;;;3.92;3.55;;;21.90;99.90;;;;;;5058770;28;20209;-72
2021/06/29 09:30:41;;;;;;;5.47;3.60;;;21.80;99.90;;;;;;5070294;28;20194;-72
2021/06/29 09:33:09;;;;;;;5.25;3.10;;;22.40;99.90;;;;;;5071109;28;20297;-72
2021/06/29 09:35:40;;;;;;;3.70;3.40;;;22.40;99.90;;;;;;5072105;28;20212;-72
2021/06/29 09:38:08;;;;;;;4.82;3.25;;;22.60;99.90;;;;;;5057310;28;20207;-72
2021/06/29 09:40:37;;;;;;;4.85;2.90;;;22.70;99.90;;;;;;5069795;28;20213;-72
2021/06/29 09:43:12;;;;;;;3.28;3.00;;;22.60;99.90;;;;;;5071598;28;20206;-72
2021/06/29 09:45:45;;;;;;;3.35;3.10;;;22.40;99.90;;;;;;5071105;28;20206;-72
2021/06/29 09:48:14;;;;;;;5.53;3.20;;;22.40;99.90;;;;;;5062860;28;20210;-72
2021/06/29 09:53:27;;;;;;;5.72;2.60;;;22.30;99.90;;;;;;5067452;28;20218;-86
2021/06/29 09:55:55;;;;;;;3.00;2.72;;;22.30;99.90;;;;;;5065481;28;20237;-85
2021/06/29 09:58:23;;;;;;;3.47;2.63;;;22.30;99.90;;;;;;5072315;28;20206;-86
2021/06/29 10:00:52;;;;;;;4.05;2.92;;;22.00;99.90;;;;;;5070086;28;20228;-86
2021/06/29 10:03:21;;;;;;;4.35;3.17;;;22.40;99.90;;;;;;5070216;28;20290;-86
2021/06/29 10:05:48;;;;;;;3.95;3.00;;;22.40;99.90;;;;;;5061444;28;20203;-87
2021/06/29 10:08:45;;;;;;;4.00;3.20;;;22.60;99.90;;;;;;5047655;28;20207;-88
2021/06/29 10:11:53;;;;;;;3.35;3.05;;;22.80;99.90;;;;;;5039828;28;20299;-88
2021/06/29 10:14:21;;;;;;;5.50;3.20;;;22.90;99.90;;;;;;5032432;28;20207;-88
2021/06/29 10:17:43;;;;;;;4.80;3.40;;;23.10;99.90;;;;;;5031331;28;20215;-88
2021/06/29 10:23:21;;;;;;;4.15;3.20;;;23.20;99.90;;;;;;5110125;23;20226;-68
2021/06/29 10:25:50;;;;;;;3.05;2.72;;;23.10;99.90;;;;;;5073637;28;20198;-68
2021/06/29 10:28:18;;;;;;;4.85;2.75;;;22.90;99.90;;;;;;5081498;28;20679;-70
2021/06/29 10:30:46;;;;;;;3.40;2.70;;;23.20;99.90;;;;;;5074511;28;20544;-70
2021/06/29 10:33:15;;;;;;;2.80;2.60;;;23.30;99.90;;;;;;5083530;28;20291;-70
2021/06/29 10:35:43;;;;;;;3.38;2.30;;;23.60;99.90;;;;;;5079127;28;20202;-70
2021/06/29 10:38:10;;;;;;;4.75;2.53;;;23.70;99.90;;;;;;5075919;28;20199;-71
2021/06/29 10:40:37;;;;;;;4.63;2.50;;;23.70;99.90;;;;;;5067369;28;20382;-69
2021/06/29 10:43:06;;;;;;;2.47;2.10;;;23.50;99.90;;;;;;5069748;28;20559;-70
2021/06/29 10:45:34;;;;;;;2.40;2.20;;;23.60;99.90;;;;;;5056927;28;20217;-70
2021/06/29 10:48:18;;;;;;;2.72;2.53;;;23.80;99.90;;;;;;5071267;28;20210;-69
2021/06/29 10:50:46;;;;;;;2.72;2.50;;;23.70;99.90;;;;;;5071731;28;20202;-70
2021/06/29 10:53:32;;;;;;;4.70;2.55;;;23.80;99.90;;;;;;5074579;28;20198;-69
2021/06/29 10:55:59;;;;;;;4.20;2.60;;;23.60;99.90;;;;;;5074690;28;20234;-70
2021/06/29 10:58:52;;;;;;;4.55;2.63;;;23.60;99.90;;;;;;5074721;28;20203;-69
2021/06/29 11:01:23;;;;;;;3.15;2.70;;;23.60;99.90;;;;;;5058906;28;20218;-70
2021/06/29 11:03:51;;;;;;;3.05;2.75;;;23.50;99.90;;;;;;5074663;28;20229;-69
2021/06/29 11:06:33;;;;;;;5.88;3.00;;;23.60;99.90;;;;;;5071719;28;20206;-69
2021/06/29 11:09:00;;;;;;;3.05;2.83;;;23.80;99.90;;;;;;5075028;28;20241;-70
2021/06/29 11:11:28;;;;;;;4.20;2.70;;;23.80;99.90;;;;;;5073651;28;20237;-69
2021/06/29 11:13:56;;;;;;;5.70;3.00;;;23.90;99.90;;;;;;5074387;28;20568;-70
2021/06/29 11:16:51;;;;;;;2.97;2.67;;;24.00;99.90;;;;;;5074004;28;20577;-69
2021/06/29 11:19:18;;;;;;;4.30;2.75;;;24.00;99.90;;;;;;5067223;28;20206;-69
2021/06/29 11:21:44;;;;;;;3.13;2.83;;;24.50;99.90;;;;;;5073816;28;20675;-69
2021/06/29 11:24:40;;;;;;;2.50;2.30;;;25.00;99.90;;;;;;5074397;28;20575;-69
2021/06/29 11:27:08;;;;;;;2.92;2.60;;;24.70;99.90;;;;;;5063274;28;20316;-69
2021/06/29 11:29:42;;;;;;;3.60;2.70;;;24.30;99.90;;;;;;5073580;28;20202;-69
2021/06/29 11:32:30;;;;;;;2.97;2.60;;;24.70;99.90;;;;;;5073162;28;20311;-69
2021/06/29 11:35:36;;;;;;;4.97;2.33;;;25.40;99.90;;;;;;5073128;28;20238;-69
2021/06/29 11:38:08;;;;;;;2.50;2.00;;;25.10;99.90;;;;;;5073459;28;20225;-72
2021/06/29 11:40:34;;;;;;;2.38;2.03;;;25.30;99.90;;;;;;5072825;28;20206;-73
2021/06/29 11:43:13;;;;;;;1.98;1.88;;;26.10;99.90;;;;;;5073446;28;20229;-69
2021/06/29 11:45:42;;;;;;;2.50;1.65;;;25.90;99.90;;;;;;5078807;28;20206;-69
2021/06/29 11:48:39;;;;;;;3.53;2.13;;;25.50;99.90;;;;;;5073213;28;20574;-69
2021/06/29 11:51:06;;;;;;;6.85;5.10;;;25.00;99.90;;;;;;5072479;28;20574;-69
2021/06/29 11:53:39;;;;;;;5.13;4.65;;;25.20;99.90;;;;;;5073737;28;20293;-69
2021/06/29 11:56:11;;;;;;;2.13;2.03;;;24.80;99.90;;;;;;5072714;28;20209;-69
2021/06/29 11:58:46;;;;;;;2.00;1.90;;;25.40;99.90;;;;;;5061017;28;20251;-69
2021/06/29 12:01:14;;;;;;;2.80;1.77;;;25.00;99.90;;;;;;5072564;28;20205;-69
2021/06/29 12:03:41;;;;;;;1.92;1.83;;;25.50;99.90;;;;;;5072856;28;20203;-69
2021/06/29 12:06:17;;;;;;;2.97;2.55;;;25.50;99.90;;;;;;5073038;28;20210;-69
2021/06/29 12:08:44;;;;;;;1.83;1.60;;;25.90;99.90;;;;;;5078842;28;20227;-69
2021/06/29 12:11:11;;;;;;;2.15;1.95;;;26.20;99.90;;;;;;5080531;28;20597;-69
2021/06/29 12:13:39;;;;;;;3.08;2.13;;;26.10;99.90;;;;;;5072453;28;20209;-69
2021/06/29 12:16:06;;;;;;;1.90;1.80;;;25.90;99.90;;;;;;5062610;28;20191;-69
2021/06/29 12:18:37;;;;;;;1.88;1.75;;;26.30;99.90;;;;;;5069473;28;20648;-69
2021/06/29 12:21:06;;;;;;;2.08;1.88;;;26.20;99.90;;;;;;5071936;28;20226;-69
2021/06/29 12:23:35;;;;;;;2.00;1.83;;;25.90;99.90;;;;;;5072471;28;20234;-69
2021/06/29 12:26:03;;;;;;;1.73;1.70;;;25.90;99.90;;;;;;5068250;28;20635;-69
2021/06/29 12:28:34;;;;;;;2.33;2.13;;;25.90;99.90;;;;;;5058220;28;20203;-69
2021/06/29 12:31:02;;;;;;;2.53;2.33;;;25.90;99.90;;;;;;5069841;28;20229;-69
2021/06/29 12:33:31;;;;;;;2.22;2.03;;;25.70;99.90;;;;;;5066082;28;20626;-69
2021/06/29 12:36:02;;;;;;;2.67;1.83;;;25.80;99.90;;;;;;5069660;28;20210;-68
2021/06/29 12:38:31;;;;;;;2.17;1.95;;;25.80;99.90;;;;;;5068068;28;20704;-69
2021/06/29 12:41:00;;;;;;;2.17;1.98;;;26.20;99.90;;;;;;5066619;28;20206;-69
2021/06/29 12:43:33;;;;;;;1.90;1.80;;;26.50;99.90;;;;;;5084621;28;20227;-69
2021/06/29 12:46:18;;;;;;;2.10;1.90;;;26.50;99.90;;;;;;5072662;28;20198;-69
2021/06/29 12:49:03;;;;;;;4.15;2.10;;;26.60;99.90;;;;;;5070201;28;20200;-69
2021/06/29 12:51:35;;;;;;;2.00;1.90;;;26.10;99.90;;;;;;5071851;28;20198;-68
2021/06/29 12:54:03;;;;;;;2.80;2.60;;;26.30;99.90;;;;;;5073019;28;20553;-68
2021/06/29 12:56:33;;;;;;;2.15;1.90;;;26.30;99.90;;;;;;5069599;28;20214;-69
2021/06/29 12:59:01;;;;;;;3.00;2.80;;;26.40;99.90;;;;;;5072119;28;20198;-69
2021/06/29 13:01:28;;;;;;;2.50;2.20;;;26.40;99.90;;;;;;5068850;28;20205;-68